createdAt,value
2022-08-26T00:01:51.921Z,82.30
2022-08-26T00:04:19.367Z,82.30
2022-08-26T00:06:46.546Z,82.30
2022-08-26T00:09:16.042Z,82.30
2022-08-26T00:11:47.213Z,82.40
2022-08-26T00:14:14.322Z,82.30
2022-08-26T00:16:47.897Z,82.30
2022-08-26T00:19:19.214Z,82.30
2022-08-26T00:21:51.333Z,82.30
2022-08-26T00:24:18.791Z,82.40
2022-08-26T00:26:45.746Z,82.30
2022-08-26T00:29:13.124Z,82.40
2022-08-26T00:31:40.382Z,82.40
2022-08-26T00:34:09.576Z,82.50
2022-08-26T00:36:41.141Z,82.50
2022-08-26T00:39:08.354Z,82.50
2022-08-26T00:41:35.651Z,82.50
2022-08-26T00:44:02.765Z,82.50
2022-08-26T00:46:31.739Z,82.50
2022-08-26T00:49:02.959Z,82.40
2022-08-26T00:51:30.338Z,82.40
2022-08-26T00:54:02.561Z,82.40
2022-08-26T00:56:33.702Z,82.40
2022-08-26T00:59:01.691Z,82.40
2022-08-26T01:01:31.642Z,82.40
2022-08-26T01:03:58.582Z,82.40
2022-08-26T01:06:30.003Z,82.40
2022-08-26T01:08:57.996Z,82.40
2022-08-26T01:11:24.998Z,82.40
2022-08-26T01:13:55.262Z,82.50
2022-08-26T01:16:22.246Z,82.50
2022-08-26T01:18:49.286Z,82.50
2022-08-26T01:21:23.398Z,82.60
2022-08-26T01:23:51.745Z,82.70
2022-08-26T01:26:30.025Z,82.70
2022-08-26T01:28:57.716Z,82.70
2022-08-26T01:31:25.753Z,82.70
2022-08-26T01:34:06.005Z,82.70
2022-08-26T01:36:32.981Z,82.80
2022-08-26T01:38:59.889Z,82.80
2022-08-26T01:41:27.142Z,82.80
2022-08-26T01:43:54.807Z,82.80
2022-08-26T01:46:22.738Z,82.90
2022-08-26T01:48:50.039Z,82.80
2022-08-26T01:51:21.539Z,82.90
2022-08-26T01:53:48.463Z,82.90
2022-08-26T01:56:15.683Z,82.90
2022-08-26T01:58:46.894Z,83.00
2022-08-26T02:01:13.964Z,83.00
2022-08-26T02:03:59.458Z,83.00
2022-08-26T02:06:26.462Z,83.00
2022-08-26T02:08:54.907Z,83.00
2022-08-26T02:11:21.837Z,83.00
2022-08-26T02:13:49.700Z,83.10
2022-08-26T02:16:18.635Z,83.20
2022-08-26T02:18:46.862Z,83.10
2022-08-26T02:21:14.138Z,83.20
2022-08-26T02:23:42.597Z,83.10
2022-08-26T02:26:10.771Z,83.20
2022-08-26T02:28:39.613Z,83.20
2022-08-26T02:31:06.883Z,83.20
2022-08-26T02:33:43.250Z,83.30
2022-08-26T02:36:10.500Z,83.30
2022-08-26T02:38:39.359Z,83.30
2022-08-26T02:41:08.082Z,83.40
2022-08-26T02:43:35.026Z,83.40
2022-08-26T02:46:02.532Z,83.40
2022-08-26T02:48:29.810Z,83.40
2022-08-26T02:50:58.386Z,83.40
2022-08-26T02:53:25.711Z,83.40
2022-08-26T02:55:52.873Z,83.50
2022-08-26T02:58:23.416Z,83.50
2022-08-26T03:00:53.242Z,83.50
2022-08-26T03:03:23.553Z,83.50
2022-08-26T03:05:53.594Z,83.50
2022-08-26T03:08:21.435Z,83.50
2022-08-26T03:10:48.536Z,83.50
2022-08-26T03:13:16.506Z,83.50
2022-08-26T03:15:44.441Z,83.50
2022-08-26T03:18:14.557Z,83.50
2022-08-26T03:20:41.973Z,83.50
2022-08-26T03:23:10.955Z,83.50
2022-08-26T03:25:38.008Z,83.60
2022-08-26T03:28:05.148Z,83.50
2022-08-26T03:30:44.847Z,83.50
2022-08-26T03:33:12.618Z,83.60
2022-08-26T03:35:39.843Z,83.60
2022-08-26T03:38:08.358Z,83.60
2022-08-26T03:40:36.770Z,83.60
2022-08-26T03:43:04.738Z,83.60
2022-08-26T03:45:32.023Z,83.70
2022-08-26T03:47:59.096Z,83.70
2022-08-26T03:50:26.246Z,83.70
2022-08-26T03:52:54.259Z,83.70
2022-08-26T03:55:23.692Z,83.70
2022-08-26T03:57:51.152Z,83.70
2022-08-26T04:00:18.667Z,83.70
2022-08-26T04:02:47.065Z,83.70
2022-08-26T04:05:14.318Z,83.70
2022-08-26T04:07:41.660Z,83.80
2022-08-26T04:10:09.067Z,83.70
2022-08-26T04:12:37.651Z,83.80
2022-08-26T04:15:08.858Z,83.80
2022-08-26T04:17:35.839Z,83.90
2022-08-26T04:20:03.404Z,83.90
2022-08-26T04:22:30.419Z,83.90
2022-08-26T04:24:57.443Z,83.90
2022-08-26T04:27:24.561Z,83.90
2022-08-26T04:29:55.345Z,84.00
2022-08-26T04:32:22.521Z,83.90
2022-08-26T04:34:49.432Z,83.90
2022-08-26T04:37:16.556Z,83.90
2022-08-26T04:39:44.811Z,83.90
2022-08-26T04:42:14.004Z,83.90
2022-08-26T04:44:41.309Z,83.90
2022-08-26T04:47:08.213Z,84.00
2022-08-26T04:49:36.018Z,83.90
2022-08-26T04:52:03.888Z,83.90
2022-08-26T04:54:32.019Z,83.90
2022-08-26T04:56:59.408Z,84.20
2022-08-26T04:59:26.494Z,84.00
2022-08-26T05:01:56.570Z,84.00
2022-08-26T05:04:23.748Z,84.00
2022-08-26T05:06:50.771Z,83.90
2022-08-26T05:09:19.119Z,83.90
2022-08-26T05:11:52.001Z,83.90
2022-08-26T05:14:20.222Z,83.90
2022-08-26T05:16:47.765Z,83.90
2022-08-26T05:19:19.193Z,83.90
2022-08-26T05:21:47.228Z,83.80
2022-08-26T05:24:14.543Z,83.90
2022-08-26T05:26:41.411Z,83.90
2022-08-26T05:29:08.365Z,83.80
2022-08-26T05:31:35.639Z,83.80
2022-08-26T05:34:03.914Z,83.80
2022-08-26T05:36:31.552Z,83.80
2022-08-26T05:38:58.601Z,83.70
2022-08-26T05:41:34.190Z,83.70
2022-08-26T05:44:04.634Z,83.70
2022-08-26T05:46:31.870Z,83.70
2022-08-26T05:48:58.950Z,83.70
2022-08-26T05:51:26.371Z,83.60
2022-08-26T05:53:54.580Z,83.60
2022-08-26T05:56:25.026Z,83.50
2022-08-26T05:58:52.218Z,83.40
2022-08-26T06:01:20.478Z,83.40
2022-08-26T06:03:49.967Z,83.30
2022-08-26T06:06:37.483Z,83.20
2022-08-26T06:09:09.304Z,83.20
2022-08-26T06:11:40.443Z,83.10
2022-08-26T06:14:08.013Z,83.00
2022-08-26T06:16:40.853Z,83.00
2022-08-26T06:19:10.265Z,82.80
2022-08-26T06:21:39.625Z,82.80
2022-08-26T06:24:28.705Z,82.80
2022-08-26T06:26:56.522Z,82.70
2022-08-26T06:29:24.946Z,82.60
2022-08-26T06:31:52.505Z,82.50
2022-08-26T06:34:19.355Z,82.50
2022-08-26T06:36:47.358Z,82.50
2022-08-26T06:39:14.798Z,82.40
2022-08-26T06:41:43.461Z,82.40
2022-08-26T06:44:11.936Z,82.30
2022-08-26T06:46:41.761Z,82.30
2022-08-26T06:49:11.229Z,82.20
2022-08-26T06:51:38.691Z,82.10
2022-08-26T06:54:05.822Z,82.10
2022-08-26T06:56:34.570Z,82.10
2022-08-26T06:59:01.769Z,82.00
2022-08-26T07:01:30.328Z,82.00
2022-08-26T07:03:59.773Z,82.00
2022-08-26T07:06:27.565Z,82.00
2022-08-26T07:08:54.959Z,82.10
2022-08-26T07:11:29.213Z,82.10
2022-08-26T07:13:59.115Z,82.10
2022-08-26T07:16:27.701Z,82.10
2022-08-26T07:18:56.631Z,82.00
2022-08-26T07:21:24.715Z,82.00
2022-08-26T07:23:56.384Z,81.90
2022-08-26T07:26:26.567Z,81.80
2022-08-26T07:28:56.119Z,81.70
2022-08-26T07:31:24.139Z,81.60
2022-08-26T07:33:51.213Z,81.40
2022-08-26T07:36:19.011Z,81.30
2022-08-26T07:38:46.064Z,81.30
2022-08-26T07:41:14.501Z,81.30
2022-08-26T07:43:41.699Z,81.30
2022-08-26T07:46:09.775Z,81.10
2022-08-26T07:48:39.223Z,81.00
2022-08-26T07:51:06.471Z,81.40
2022-08-26T07:53:34.276Z,80.60
2022-08-26T07:56:01.277Z,80.50
2022-08-26T07:58:29.134Z,80.30
2022-08-26T08:00:56.462Z,80.10
2022-08-26T08:03:23.506Z,79.90
2022-08-26T08:05:50.535Z,79.90
2022-08-26T08:08:27.632Z,79.80
2022-08-26T08:10:57.052Z,79.60
2022-08-26T08:13:24.564Z,79.40
2022-08-26T08:15:51.527Z,79.30
2022-08-26T08:18:20.473Z,79.20
2022-08-26T08:20:59.123Z,79.10
2022-08-26T08:23:32.228Z,78.90
2022-08-26T08:26:03.202Z,78.70
2022-08-26T08:28:30.380Z,78.50
2022-08-26T08:30:58.546Z,78.30
2022-08-26T08:33:26.483Z,78.20
2022-08-26T08:35:53.487Z,78.00
2022-08-26T08:38:20.569Z,78.00
2022-08-26T08:40:47.611Z,77.80
2022-08-26T08:43:24.906Z,77.70
2022-08-26T08:45:53.605Z,77.70
2022-08-26T08:48:22.307Z,77.60
2022-08-26T08:51:15.137Z,77.40
2022-08-26T08:53:45.995Z,77.20
2022-08-26T08:56:28.153Z,77.00
2022-08-26T08:59:15.294Z,77.00
2022-08-26T09:01:42.454Z,77.00
2022-08-26T09:04:28.319Z,76.90
2022-08-26T09:09:36.776Z,76.70
2022-08-26T09:12:03.993Z,76.50
2022-08-26T09:14:31.799Z,76.40
2022-08-26T09:17:22.957Z,76.30
2022-08-26T09:23:03.502Z,76.10
2022-08-26T09:25:31.124Z,76.00
2022-08-26T09:27:58.394Z,75.80
2022-08-26T09:30:29.372Z,75.80
2022-08-26T09:33:10.482Z,75.80
2022-08-26T09:35:43.160Z,75.70
2022-08-26T09:38:22.341Z,75.70
2022-08-26T09:41:03.686Z,75.70
2022-08-26T09:43:32.514Z,75.60
2022-08-26T09:46:19.014Z,75.50
2022-08-26T09:48:48.383Z,75.40
2022-08-26T09:51:23.407Z,75.30
2022-08-26T09:53:51.785Z,75.30
2022-08-26T09:56:39.280Z,75.10
2022-08-26T09:59:15.055Z,75.10
2022-08-26T10:01:46.231Z,75.10
2022-08-26T10:04:26.702Z,75.50
2022-08-26T10:06:58.026Z,74.90
2022-08-26T10:09:25.894Z,74.90
2022-08-26T10:11:59.429Z,74.80
2022-08-26T10:14:46.775Z,74.90
2022-08-26T10:17:17.820Z,74.70
2022-08-26T10:19:56.839Z,74.70
2022-08-26T10:22:36.331Z,74.60
2022-08-26T10:25:06.610Z,74.60
2022-08-26T10:27:34.280Z,74.40
2022-08-26T10:30:12.361Z,74.40
2022-08-26T10:32:41.847Z,74.30
2022-08-26T10:35:14.736Z,74.20
2022-08-26T10:37:46.777Z,74.20
2022-08-26T10:40:21.150Z,74.00
2022-08-26T10:42:50.499Z,73.90
2022-08-26T10:45:20.048Z,73.90
2022-08-26T10:47:47.048Z,73.90
2022-08-26T10:50:15.172Z,73.90
2022-08-26T10:52:50.321Z,73.70
2022-08-26T10:55:22.755Z,73.60
2022-08-26T10:57:49.669Z,73.50
2022-08-26T11:00:36.811Z,73.50
2022-08-26T11:03:21.847Z,73.60
2022-08-26T11:06:09.467Z,73.60
2022-08-26T11:08:36.809Z,73.70
2022-08-26T11:11:04.002Z,73.90
2022-08-26T11:13:49.785Z,74.00
2022-08-26T11:16:31.920Z,74.00
2022-08-26T11:19:01.782Z,74.10
2022-08-26T11:21:41.206Z,74.00
2022-08-26T11:24:08.881Z,74.10
2022-08-26T11:26:56.280Z,74.00
2022-08-26T11:29:42.427Z,73.90
2022-08-26T11:32:14.575Z,73.70
2022-08-26T11:34:53.241Z,73.50
2022-08-26T11:39:54.739Z,73.30
2022-08-26T11:42:41.604Z,73.30
2022-08-26T11:45:41.614Z,73.30
2022-08-26T11:48:21.044Z,73.40
2022-08-26T11:50:54.826Z,73.50
2022-08-26T11:53:23.026Z,73.50
2022-08-26T11:55:50.871Z,73.50
2022-08-26T11:58:20.436Z,73.50
2022-08-26T12:00:50.848Z,73.50
2022-08-26T12:03:18.646Z,73.40
2022-08-26T12:05:46.448Z,73.30
2022-08-26T12:08:24.378Z,73.30
2022-08-26T12:11:06.487Z,73.30
2022-08-26T12:13:41.334Z,73.40
2022-08-26T12:16:09.768Z,73.50
2022-08-26T12:18:37.843Z,73.40
2022-08-26T12:21:14.686Z,73.60
2022-08-26T12:23:44.233Z,73.50
2022-08-26T12:26:13.392Z,73.40
2022-08-26T12:29:20.234Z,73.30
2022-08-26T12:32:06.631Z,73.20
2022-08-26T12:34:36.360Z,72.90
2022-08-26T12:37:03.552Z,72.70
2022-08-26T12:39:35.929Z,72.40
2022-08-26T12:42:18.156Z,72.30
2022-08-26T12:44:53.244Z,72.10
2022-08-26T12:47:30.843Z,71.80
2022-08-26T12:50:18.387Z,71.80
2022-08-26T12:53:01.550Z,71.70
2022-08-26T12:55:47.792Z,71.50
2022-08-26T12:58:23.402Z,71.40
2022-08-26T13:00:56.231Z,71.20
2022-08-26T13:03:29.391Z,71.00
2022-08-26T13:06:15.575Z,70.80
2022-08-26T13:08:46.981Z,71.10
2022-08-26T13:11:13.932Z,70.80
2022-08-26T13:13:41.382Z,70.70
2022-08-26T13:16:08.418Z,70.60
2022-08-26T13:18:35.547Z,70.60
2022-08-26T13:21:08.238Z,70.60
2022-08-26T13:23:38.384Z,70.60
2022-08-26T13:26:08.563Z,70.60
2022-08-26T13:28:39.355Z,70.70
2022-08-26T13:31:06.433Z,70.80
2022-08-26T13:33:33.532Z,70.90
2022-08-26T13:36:01.156Z,71.00
2022-08-26T13:38:33.210Z,71.10
2022-08-26T13:41:01.959Z,71.10
2022-08-26T13:43:29.184Z,71.00
2022-08-26T13:45:56.277Z,70.90
2022-08-26T13:48:23.687Z,70.80
2022-08-26T13:50:52.776Z,70.60
2022-08-26T13:53:22.461Z,70.50
2022-08-26T13:55:52.659Z,70.40
2022-08-26T13:58:21.017Z,70.20
2022-08-26T14:00:50.462Z,70.20
2022-08-26T14:03:17.481Z,70.20
2022-08-26T14:05:44.701Z,70.30
2022-08-26T14:08:14.359Z,70.20
2022-08-26T14:10:43.879Z,70.20
2022-08-26T14:13:10.925Z,70.20
2022-08-26T14:15:43.610Z,70.20
2022-08-26T14:18:17.293Z,70.10
2022-08-26T14:20:49.682Z,70.10
2022-08-26T14:23:19.800Z,70.50
2022-08-26T14:25:50.177Z,69.90
2022-08-26T14:28:20.060Z,69.80
2022-08-26T14:30:49.605Z,69.80
2022-08-26T14:33:17.006Z,69.70
2022-08-26T14:35:48.806Z,69.60
2022-08-26T14:38:18.729Z,69.50
2022-08-26T14:40:46.022Z,69.30
2022-08-26T14:43:15.470Z,69.20
2022-08-26T14:48:10.137Z,68.90
2022-08-26T14:50:39.994Z,68.80
2022-08-26T14:53:25.660Z,68.60
2022-08-26T14:55:52.633Z,68.30
2022-08-26T14:58:19.795Z,68.40
2022-08-26T15:00:46.789Z,68.30
2022-08-26T15:05:48.114Z,68.20
2022-08-26T15:08:16.082Z,68.00
2022-08-26T15:10:43.108Z,67.90
2022-08-26T15:13:10.128Z,67.80
2022-08-26T15:15:38.242Z,67.70
2022-08-26T15:18:07.779Z,67.70
2022-08-26T15:20:35.047Z,67.50
2022-08-26T15:23:06.144Z,67.40
2022-08-26T15:25:33.409Z,67.40
2022-08-26T15:28:03.238Z,67.40
2022-08-26T15:30:30.368Z,67.20
2022-08-26T15:32:57.496Z,67.30
2022-08-26T15:35:26.842Z,67.40
2022-08-26T15:40:23.392Z,67.60
2022-08-26T15:43:01.247Z,67.60
2022-08-26T15:45:38.030Z,67.60
2022-08-26T15:48:05.244Z,67.70
2022-08-26T15:50:32.400Z,67.70
2022-08-26T15:53:00.161Z,67.80
2022-08-26T15:55:41.891Z,67.80
2022-08-26T15:58:10.692Z,67.80
2022-08-26T16:00:37.832Z,67.80
2022-08-26T16:03:06.994Z,67.80
2022-08-26T16:05:36.881Z,67.80
2022-08-26T16:08:08.358Z,67.80
2022-08-26T16:10:39.402Z,67.80
2022-08-26T16:13:08.411Z,67.80
2022-08-26T16:15:38.039Z,67.90
2022-08-26T16:18:05.585Z,67.80
2022-08-26T16:20:34.039Z,67.80
2022-08-26T16:23:08.234Z,67.80
2022-08-26T16:25:35.475Z,67.80
2022-08-26T16:28:06.050Z,67.80
2022-08-26T16:30:38.518Z,67.80
2022-08-26T16:33:05.507Z,67.90
2022-08-26T16:35:32.572Z,67.90
2022-08-26T16:37:59.582Z,68.00
2022-08-26T16:40:26.883Z,68.00
2022-08-26T16:42:55.213Z,68.00
2022-08-26T16:45:22.565Z,68.10
2022-08-26T16:47:49.809Z,68.20
2022-08-26T16:50:17.259Z,68.20
2022-08-26T16:52:44.398Z,68.20
2022-08-26T16:55:16.085Z,68.30
2022-08-26T16:57:43.616Z,68.30
2022-08-26T17:00:27.785Z,68.30
2022-08-26T17:02:55.508Z,68.30
2022-08-26T17:05:23.078Z,68.30
2022-08-26T17:07:50.101Z,68.30
2022-08-26T17:10:17.117Z,68.20
2022-08-26T17:12:44.037Z,68.30
2022-08-26T17:15:11.290Z,68.30
2022-08-26T17:17:38.291Z,68.30
2022-08-26T17:20:09.266Z,68.30
2022-08-26T17:22:41.578Z,68.30
2022-08-26T17:28:13.725Z,68.30
2022-08-26T17:30:41.044Z,68.30
2022-08-26T17:44:09.947Z,68.30
2022-08-26T17:46:39.561Z,68.30
2022-08-26T17:49:10.103Z,68.40
2022-08-26T17:51:37.225Z,68.40
2022-08-26T17:54:07.023Z,68.40
2022-08-26T17:56:34.004Z,68.40
2022-08-26T17:59:04.178Z,68.50
2022-08-26T18:01:34.508Z,68.50
2022-08-26T18:04:33.435Z,68.40
2022-08-26T18:07:00.594Z,68.30
2022-08-26T18:13:18.378Z,68.20
2022-08-26T18:15:54.087Z,68.10
2022-08-26T18:31:45.940Z,67.60
2022-08-26T18:34:19.605Z,67.50
2022-08-26T18:43:54.859Z,67.40
2022-08-26T18:50:15.972Z,67.30
2022-08-26T18:52:54.035Z,67.30
2022-08-26T18:55:30.823Z,67.20
2022-08-26T18:58:19.122Z,67.20
2022-08-26T19:00:52.871Z,67.70
2022-08-26T19:03:25.713Z,67.20
2022-08-26T20:12:32.926Z,67.90
2022-08-26T20:14:59.950Z,67.90
2022-08-26T20:17:56.028Z,68.00
2022-08-26T20:20:41.729Z,68.10
2022-08-26T20:40:32.248Z,68.80
2022-08-26T20:44:54.280Z,68.90
2022-08-26T20:53:18.118Z,69.10
2022-08-26T20:56:39.607Z,69.10
2022-08-26T20:59:50.103Z,69.20
2022-08-26T21:02:30.272Z,69.30
2022-08-26T21:05:11.268Z,69.30
2022-08-26T21:07:41.041Z,69.50
2022-08-26T21:10:11.756Z,69.60
2022-08-26T21:12:44.407Z,69.70
2022-08-26T21:15:12.722Z,69.80
2022-08-26T21:17:45.913Z,69.80
2022-08-26T21:20:21.647Z,69.90
2022-08-26T21:22:53.708Z,70.10
2022-08-26T21:25:42.288Z,70.20
2022-08-26T21:28:12.180Z,70.30
2022-08-26T21:30:42.330Z,70.30
2022-08-26T21:33:12.491Z,70.50
2022-08-26T21:35:46.449Z,70.60
2022-08-26T21:38:23.498Z,70.70
2022-08-26T21:41:17.955Z,70.80
2022-08-26T21:44:03.323Z,70.90
2022-08-26T21:46:51.767Z,71.00
2022-08-26T21:49:22.341Z,71.10
2022-08-26T21:52:09.632Z,71.20
2022-08-26T21:57:24.245Z,71.30
2022-08-26T22:00:13.717Z,71.40
2022-08-26T22:02:54.401Z,71.50
2022-08-26T22:08:55.810Z,71.60
2022-08-26T22:11:25.868Z,71.70
2022-08-26T22:14:01.877Z,71.80
2022-08-26T22:16:58.274Z,71.90
2022-08-26T22:19:43.339Z,72.00
2022-08-26T22:26:27.239Z,72.10
2022-08-26T22:29:01.314Z,72.10
2022-08-26T22:31:42.978Z,72.20
2022-08-26T22:34:20.239Z,72.30
2022-08-26T22:37:12.029Z,72.30
2022-08-26T22:40:07.916Z,72.40
2022-08-26T22:42:55.575Z,72.40
2022-08-26T22:45:33.842Z,72.40
2022-08-26T22:48:07.036Z,72.50
2022-08-26T22:50:57.110Z,72.50
2022-08-26T22:53:29.944Z,72.60
2022-08-26T22:56:06.451Z,72.60
2022-08-26T22:58:47.636Z,72.60
2022-08-26T23:01:22.463Z,72.60
2022-08-26T23:03:55.612Z,72.60
2022-08-26T23:06:22.799Z,72.70
2022-08-26T23:08:56.224Z,72.80
2022-08-26T23:12:08.933Z,72.80
2022-08-26T23:18:26.795Z,72.80
2022-08-26T23:20:58.595Z,72.90
2022-08-26T23:23:38.654Z,73.00
2022-08-26T23:26:08.850Z,73.10
2022-08-26T23:28:46.229Z,73.10
2022-08-26T23:31:28.610Z,73.20
2022-08-26T23:34:16.761Z,73.20
2022-08-26T23:36:56.250Z,73.30
2022-08-26T23:39:33.747Z,73.30
2022-08-26T23:42:16.926Z,73.30
2022-08-26T23:45:01.418Z,73.40
2022-08-26T23:48:01.143Z,73.50
2022-08-26T23:50:55.726Z,73.60
2022-08-26T23:53:53.610Z,73.70
2022-08-26T23:56:36.331Z,73.80
2022-08-26T23:59:31.028Z,73.80
